Hanna, Indiana
Current Conditions -  °F | °C
As of 2:35 AM on Monday 22 Dec 2014 (Local Time) from KOXI Reporting Station
Clear Clear  
Wind Chill: 20°   Ceiling: Unl
Heat Index: 29°   Visibility: 4mi
Dew Point: 23°   Wind: 10mph
Humidity: 78%   Direction: 140°SE
Pressure: 30.01"   Gusts: NA
Location:  41.41°N, 86.78°W
Report Text: KOXI 220835Z AUTO 14009KT 4SM CLR M01/M05 A3001 RMK AO1 T10151048
Loading
Personal Weather Stations






























Interactive Weather Map New forecast layout! Learn more

10-Day Weather Forecast

Advertisements
Track Severe Weather on mobile